createdAt,value
2018-02-17T00:01:18.972Z,27.02
2018-02-17T00:03:45.623Z,16.58
2018-02-17T00:06:12.030Z,21.80
2018-02-17T00:08:38.300Z,20.20
2018-02-17T00:11:04.543Z,22.37
2018-02-17T00:13:33.010Z,18.15
2018-02-17T00:15:59.970Z,16.12
2018-02-17T00:18:27.022Z,24.35
2018-02-17T00:20:53.165Z,22.27
2018-02-17T00:23:19.429Z,17.15
2018-02-17T00:25:45.695Z,25.27
2018-02-17T00:28:12.018Z,18.75
2018-02-17T00:30:38.260Z,23.62
2018-02-17T00:33:04.611Z,23.73
2018-02-17T00:35:30.852Z,19.15
2018-02-17T00:37:57.098Z,15.68
2018-02-17T00:40:23.360Z,16.95
2018-02-17T00:42:49.608Z,14.65
2018-02-17T00:45:15.878Z,20.48
2018-02-17T00:47:42.108Z,21.55
2018-02-17T00:50:08.361Z,16.02
2018-02-17T00:52:34.629Z,17.58
2018-02-17T00:55:00.878Z,21.48
2018-02-17T00:57:27.141Z,19.85
2018-02-17T00:59:53.442Z,20.62
2018-02-17T01:02:19.698Z,18.30
2018-02-17T01:04:45.929Z,21.90
2018-02-17T01:07:12.169Z,21.73
2018-02-17T01:09:38.445Z,17.90
2018-02-17T01:12:04.690Z,19.20
2018-02-17T01:14:30.973Z,16.52
2018-02-17T01:16:57.237Z,18.40
2018-02-17T01:19:23.507Z,26.90
2018-02-17T01:21:49.778Z,16.70
2018-02-17T01:24:16.038Z,20.62
2018-02-17T01:26:42.304Z,18.50
2018-02-17T01:29:09.327Z,17.33
2018-02-17T01:31:35.566Z,18.98
2018-02-17T01:34:01.826Z,17.10
2018-02-17T01:36:28.067Z,17.58
2018-02-17T01:38:54.325Z,19.40
2018-02-17T01:41:20.494Z,17.12
2018-02-17T01:43:46.759Z,23.95
2018-02-17T01:46:13.841Z,25.55
2018-02-17T01:48:40.093Z,16.95
2018-02-17T01:51:06.335Z,23.00
2018-02-17T01:53:33.360Z,23.40
2018-02-17T01:55:59.615Z,16.80
2018-02-17T01:58:25.844Z,21.17
2018-02-17T02:00:52.080Z,19.00
2018-02-17T02:03:18.349Z,19.25
2018-02-17T02:05:44.597Z,15.80
2018-02-17T02:08:10.822Z,19.60
2018-02-17T02:10:37.198Z,20.92
2018-02-17T02:13:04.249Z,24.15
2018-02-17T02:15:30.584Z,22.85
2018-02-17T02:17:56.837Z,22.17
2018-02-17T02:20:23.106Z,20.45
2018-02-17T02:22:49.362Z,21.17
2018-02-17T02:25:15.629Z,19.37
2018-02-17T02:27:41.885Z,25.55
2018-02-17T02:30:08.122Z,26.00
2018-02-17T02:32:34.415Z,19.83
2018-02-17T02:35:00.638Z,23.08
2018-02-17T02:37:26.898Z,27.48
2018-02-17T02:39:53.162Z,24.90
2018-02-17T02:42:20.175Z,15.85
2018-02-17T02:44:46.438Z,21.73
2018-02-17T02:47:12.721Z,22.15
2018-02-17T02:49:38.987Z,21.55
2018-02-17T02:52:05.230Z,22.60
2018-02-17T02:54:31.529Z,28.90
2018-02-17T02:56:57.860Z,22.52
2018-02-17T02:59:24.072Z,22.95
2018-02-17T03:01:50.302Z,27.65
2018-02-17T03:04:16.588Z,22.08
2018-02-17T03:06:42.840Z,24.02
2018-02-17T03:09:09.108Z,24.20
2018-02-17T03:11:35.431Z,20.83
2018-02-17T03:14:02.380Z,19.45
2018-02-17T03:16:28.642Z,18.95
2018-02-17T03:18:56.489Z,19.40
2018-02-17T03:21:23.466Z,23.20
2018-02-17T03:23:49.712Z,27.67
2018-02-17T03:26:16.708Z,24.08
2018-02-17T03:28:42.948Z,18.73
2018-02-17T03:31:09.978Z,20.30
2018-02-17T03:33:36.325Z,21.08
2018-02-17T03:36:02.589Z,25.25
2018-02-17T03:38:28.841Z,19.35
2018-02-17T03:40:55.077Z,23.80
2018-02-17T03:43:22.111Z,21.37
2018-02-17T03:45:48.387Z,20.37
2018-02-17T03:48:14.635Z,20.73
2018-02-17T03:50:41.594Z,22.62
2018-02-17T03:53:08.594Z,30.90
2018-02-17T03:55:35.626Z,21.67
2018-02-17T03:58:01.894Z,22.70
2018-02-17T04:00:28.142Z,24.63
2018-02-17T04:02:54.430Z,23.90
2018-02-17T04:05:21.440Z,21.73
2018-02-17T04:07:47.703Z,24.17
2018-02-17T04:10:13.954Z,21.62
2018-02-17T04:12:40.204Z,25.20
2018-02-17T04:15:06.476Z,26.42
2018-02-17T04:17:32.734Z,23.10
2018-02-17T04:19:58.961Z,23.55
2018-02-17T04:22:25.233Z,27.05
2018-02-17T04:24:51.504Z,26.15
2018-02-17T04:27:17.905Z,24.35
2018-02-17T04:29:44.629Z,23.67
2018-02-17T04:32:10.879Z,31.85
2018-02-17T04:34:37.604Z,24.87
2018-02-17T04:37:03.865Z,27.00
2018-02-17T04:39:35.187Z,26.15
2018-02-17T04:42:03.328Z,26.05
2018-02-17T04:47:44.472Z,22.37
2018-02-17T04:53:30.434Z,28.08
2018-02-17T04:56:02.783Z,22.52
2018-02-17T05:01:34.484Z,27.75
2018-02-17T05:04:03.585Z,24.98
2018-02-17T05:06:34.773Z,29.48
2018-02-17T05:09:03.045Z,26.95
2018-02-17T05:11:29.326Z,23.85
2018-02-17T05:13:55.637Z,25.95
2018-02-17T05:16:24.756Z,31.55
2018-02-17T05:18:56.933Z,24.02
2018-02-17T05:21:29.185Z,20.80
2018-02-17T05:24:05.409Z,22.27
2018-02-17T05:26:32.385Z,25.15
2018-02-17T05:29:00.446Z,25.33
2018-02-17T05:31:27.601Z,20.15
2018-02-17T05:33:53.846Z,21.90
2018-02-17T05:36:20.140Z,22.75
2018-02-17T05:41:55.867Z,21.92
2018-02-17T05:44:37.818Z,25.83
2018-02-17T05:47:07.009Z,22.83
2018-02-17T05:49:35.251Z,27.17
2018-02-17T05:52:01.558Z,22.33
2018-02-17T05:54:27.834Z,29.00
2018-02-17T05:56:54.078Z,24.45
2018-02-17T05:59:20.308Z,24.23
2018-02-17T06:01:47.269Z,21.98
2018-02-17T06:04:13.525Z,30.02
2018-02-17T06:06:39.869Z,29.60
2018-02-17T06:09:06.100Z,26.77
2018-02-17T06:11:32.385Z,23.62
2018-02-17T06:13:58.662Z,26.65
2018-02-17T06:16:25.682Z,25.35
2018-02-17T06:18:51.939Z,27.75
2018-02-17T06:21:18.313Z,25.42
2018-02-17T06:23:45.316Z,29.77
2018-02-17T06:26:12.325Z,28.40
2018-02-17T06:28:38.586Z,25.40
2018-02-17T06:31:04.829Z,24.12
2018-02-17T06:33:31.123Z,23.98
2018-02-17T06:35:58.250Z,24.27
2018-02-17T06:38:25.243Z,29.27
2018-02-17T06:40:51.799Z,30.30
2018-02-17T06:43:18.112Z,32.35
2018-02-17T06:45:44.400Z,28.83
2018-02-17T06:48:10.681Z,28.33
2018-02-17T06:50:36.953Z,31.70
2018-02-17T06:53:03.933Z,25.92
2018-02-17T06:55:30.912Z,26.23
2018-02-17T06:57:57.152Z,25.52
2018-02-17T07:00:23.410Z,27.15
2018-02-17T07:02:49.657Z,24.00
2018-02-17T07:05:15.914Z,33.67
2018-02-17T07:07:42.190Z,34.30
2018-02-17T07:10:09.210Z,33.10
2018-02-17T07:12:35.474Z,30.58
2018-02-17T07:15:01.747Z,28.02
2018-02-17T07:17:27.975Z,27.58
2018-02-17T07:19:54.245Z,31.10
2018-02-17T07:22:20.491Z,31.35
2018-02-17T07:24:46.760Z,25.35
2018-02-17T07:27:13.752Z,31.48
2018-02-17T07:29:39.997Z,26.95
2018-02-17T07:32:06.253Z,25.60
2018-02-17T07:34:32.502Z,26.70
2018-02-17T07:36:59.501Z,25.88
2018-02-17T07:39:25.753Z,28.60
2018-02-17T07:41:52.846Z,25.40
2018-02-17T07:44:19.825Z,27.02
2018-02-17T07:46:46.078Z,29.15
2018-02-17T07:49:12.352Z,28.08
2018-02-17T07:51:39.383Z,31.33
2018-02-17T07:54:05.608Z,26.85
2018-02-17T07:56:31.821Z,25.33
2018-02-17T07:58:58.105Z,25.95
2018-02-17T08:01:24.341Z,23.60
2018-02-17T08:03:50.590Z,28.80
2018-02-17T08:06:16.894Z,24.20
2018-02-17T08:08:43.257Z,28.95
2018-02-17T08:11:09.521Z,25.45
2018-02-17T08:13:35.754Z,31.05
2018-02-17T08:16:02.003Z,29.48
2018-02-17T08:18:29.036Z,28.48
2018-02-17T08:20:55.270Z,26.52
2018-02-17T08:23:21.511Z,28.58
2018-02-17T08:25:48.752Z,28.73
2018-02-17T08:28:15.026Z,25.42
2018-02-17T08:30:41.305Z,30.52
2018-02-17T08:33:07.581Z,23.33
2018-02-17T08:35:33.853Z,28.60
2018-02-17T08:38:00.165Z,25.67
2018-02-17T08:40:27.218Z,25.58
2018-02-17T08:42:53.501Z,31.85
2018-02-17T08:45:20.095Z,25.55
2018-02-17T08:47:47.094Z,24.63
2018-02-17T08:50:13.341Z,31.90
2018-02-17T08:52:39.615Z,25.90
2018-02-17T08:55:06.863Z,27.10
2018-02-17T08:57:33.154Z,26.95
2018-02-17T08:59:59.474Z,34.55
2018-02-17T09:02:26.925Z,29.65
2018-02-17T09:04:53.193Z,24.83
2018-02-17T09:07:19.486Z,29.77
2018-02-17T09:09:45.773Z,28.42
2018-02-17T09:12:12.814Z,28.17
2018-02-17T09:14:39.054Z,21.87
2018-02-17T09:17:05.330Z,30.58
2018-02-17T09:19:31.577Z,30.73
2018-02-17T09:21:57.849Z,26.20
2018-02-17T09:24:24.224Z,26.00
2018-02-17T09:26:50.544Z,25.08
2018-02-17T09:29:16.815Z,24.77
2018-02-17T09:31:43.072Z,30.67
2018-02-17T09:34:10.261Z,29.50
2018-02-17T09:36:36.520Z,26.02
2018-02-17T09:39:02.833Z,26.48
2018-02-17T09:41:29.123Z,28.58
2018-02-17T09:43:55.423Z,26.62
2018-02-17T09:46:21.706Z,28.83
2018-02-17T09:48:48.047Z,28.73
2018-02-17T09:51:14.370Z,32.63
2018-02-17T09:53:40.713Z,26.70
2018-02-17T09:56:07.053Z,28.70
2018-02-17T09:58:33.242Z,28.92
2018-02-17T10:01:00.121Z,37.75
2018-02-17T10:03:26.219Z,27.77
2018-02-17T10:05:52.281Z,31.65
2018-02-17T10:08:18.347Z,24.60
2018-02-17T10:10:45.146Z,25.80
2018-02-17T10:13:11.404Z,30.90
2018-02-17T10:15:37.477Z,29.33
2018-02-17T10:18:03.553Z,33.92
2018-02-17T10:20:29.779Z,28.20
2018-02-17T10:22:55.858Z,30.60
2018-02-17T10:25:21.998Z,26.92
2018-02-17T10:27:48.074Z,25.02
2018-02-17T10:30:17.017Z,28.45
2018-02-17T10:32:43.850Z,26.05
2018-02-17T10:35:09.917Z,30.27
2018-02-17T10:37:36.076Z,36.88
2018-02-17T10:40:02.157Z,32.65
2018-02-17T10:42:28.213Z,31.12
2018-02-17T10:44:55.014Z,37.75
2018-02-17T10:47:21.130Z,36.47
2018-02-17T10:49:47.174Z,35.78
2018-02-17T10:52:13.231Z,34.00
2018-02-17T10:54:39.349Z,35.92
2018-02-17T10:57:05.402Z,31.83
2018-02-17T10:59:31.458Z,39.97
2018-02-17T11:01:57.597Z,37.10
2018-02-17T11:04:23.655Z,29.75
2018-02-17T11:06:49.762Z,31.12
2018-02-17T11:09:15.830Z,39.85
2018-02-17T11:11:41.910Z,31.85
2018-02-17T11:14:07.966Z,33.72
2018-02-17T11:16:34.029Z,36.13
2018-02-17T11:19:00.110Z,39.25
2018-02-17T11:21:26.194Z,34.45
2018-02-17T11:23:52.289Z,36.33
2018-02-17T11:26:18.374Z,35.97
2018-02-17T11:28:44.430Z,33.58
2018-02-17T11:31:10.483Z,42.35
2018-02-17T11:33:36.672Z,40.15
2018-02-17T11:36:02.786Z,38.08
2018-02-17T11:38:29.068Z,32.50
2018-02-17T11:40:55.443Z,39.17
2018-02-17T11:43:23.546Z,41.97
2018-02-17T11:45:51.902Z,38.72
2018-02-17T11:48:18.886Z,37.20
2018-02-17T11:50:45.141Z,38.40
2018-02-17T11:53:11.409Z,35.83
2018-02-17T11:55:37.669Z,32.45
2018-02-17T11:58:03.993Z,34.85
2018-02-17T12:00:30.229Z,33.42
2018-02-17T12:02:57.570Z,31.95
2018-02-17T12:05:23.817Z,28.50
2018-02-17T12:07:50.925Z,36.58
2018-02-17T12:10:17.181Z,41.08
2018-02-17T12:12:44.204Z,37.25
2018-02-17T12:15:10.515Z,38.45
2018-02-17T12:17:36.778Z,43.75
2018-02-17T12:20:03.042Z,40.80
2018-02-17T12:22:30.775Z,43.00
2018-02-17T12:24:57.022Z,34.00
2018-02-17T12:27:23.257Z,38.75
2018-02-17T12:29:50.374Z,30.80
2018-02-17T12:32:16.641Z,32.88
2018-02-17T12:34:43.653Z,28.58
2018-02-17T12:37:09.911Z,35.17
2018-02-17T12:39:36.145Z,32.13
2018-02-17T12:42:02.413Z,33.20
2018-02-17T12:44:28.784Z,41.20
2018-02-17T12:46:55.060Z,29.70
2018-02-17T12:49:23.711Z,36.40
2018-02-17T12:51:49.958Z,29.25
2018-02-17T12:54:16.230Z,36.08
2018-02-17T12:56:42.505Z,32.80
2018-02-17T12:59:08.753Z,23.25
2018-02-17T13:01:34.817Z,26.87
2018-02-17T13:04:02.778Z,21.98
2018-02-17T13:06:28.840Z,21.08
2018-02-17T13:08:54.921Z,25.80
2018-02-17T13:11:21.023Z,27.67
2018-02-17T13:13:47.821Z,23.20
2018-02-17T13:16:13.885Z,26.97
2018-02-17T13:18:40.805Z,24.60
2018-02-17T13:21:06.885Z,25.90
2018-02-17T13:23:32.951Z,21.27
2018-02-17T13:25:59.028Z,22.10
2018-02-17T13:28:25.122Z,19.83
2018-02-17T13:30:52.734Z,23.12
2018-02-17T13:33:19.737Z,25.95
2018-02-17T13:35:47.178Z,22.15
2018-02-17T13:38:13.489Z,23.52
2018-02-17T13:40:39.835Z,19.30
2018-02-17T13:43:06.933Z,24.83
2018-02-17T13:45:33.924Z,22.83
2018-02-17T13:48:00.216Z,28.95
2018-02-17T13:50:28.326Z,26.40
2018-02-17T13:52:54.659Z,23.90
2018-02-17T13:55:20.878Z,25.48
2018-02-17T13:57:47.206Z,24.40
2018-02-17T14:00:14.396Z,42.70
2018-02-17T14:02:40.481Z,23.08
2018-02-17T14:05:07.302Z,19.85
2018-02-17T14:07:35.466Z,21.48
2018-02-17T14:10:02.108Z,25.45
2018-02-17T14:12:28.181Z,25.17
2018-02-17T14:14:55.447Z,19.85
2018-02-17T14:17:21.530Z,16.05
2018-02-17T14:19:47.590Z,18.60
2018-02-17T14:22:17.178Z,19.12
2018-02-17T14:24:43.997Z,18.80
2018-02-17T14:27:11.158Z,19.85
2018-02-17T14:29:38.181Z,19.33
2018-02-17T14:32:04.514Z,17.90
2018-02-17T14:34:30.789Z,18.67
2018-02-17T14:36:57.705Z,25.77
2018-02-17T14:39:28.655Z,20.25
2018-02-17T14:41:54.937Z,21.05
2018-02-17T14:44:21.195Z,15.05
2018-02-17T14:49:46.249Z,17.08
2018-02-17T14:52:12.506Z,24.30
2018-02-17T14:54:38.736Z,22.20
2018-02-17T14:57:08.200Z,21.85
2018-02-17T14:59:34.409Z,20.40
2018-02-17T15:02:00.629Z,23.80
2018-02-17T15:04:26.865Z,24.63
2018-02-17T15:06:53.277Z,19.17
2018-02-17T15:09:19.546Z,20.85
2018-02-17T15:11:46.533Z,17.62
2018-02-17T15:14:12.936Z,21.30
2018-02-17T15:16:39.941Z,23.48
2018-02-17T15:19:06.196Z,20.77
2018-02-17T15:21:33.070Z,19.15
2018-02-17T15:23:59.287Z,18.35
2018-02-17T15:26:26.664Z,19.52
2018-02-17T15:28:53.034Z,27.55
2018-02-17T15:31:19.324Z,20.48
2018-02-17T15:33:45.569Z,21.23
2018-02-17T15:36:11.830Z,35.33
2018-02-17T15:38:37.888Z,31.00
2018-02-17T15:41:04.024Z,50.35
2018-02-17T15:43:31.458Z,19.75
2018-02-17T15:45:58.374Z,19.87
2018-02-17T15:48:24.424Z,17.55
2018-02-17T15:50:50.468Z,21.23
2018-02-17T15:53:16.513Z,20.20
2018-02-17T15:55:42.551Z,22.27
2018-02-17T15:58:08.594Z,19.65
2018-02-17T16:00:34.663Z,22.48
2018-02-17T16:03:00.896Z,27.83
2018-02-17T16:05:28.069Z,24.17
2018-02-17T16:07:54.337Z,26.00
2018-02-17T16:12:52.129Z,27.85
2018-02-17T16:15:19.093Z,33.67
2018-02-17T16:17:45.141Z,41.08
2018-02-17T16:20:11.221Z,35.17
2018-02-17T16:22:37.272Z,28.75
2018-02-17T16:25:04.081Z,29.55
2018-02-17T16:27:31.602Z,49.47
2018-02-17T16:29:58.023Z,50.47
2018-02-17T16:32:24.305Z,40.47
2018-02-17T16:34:51.327Z,87.20
2018-02-17T16:37:17.565Z,47.40
2018-02-17T16:39:44.509Z,51.83
2018-02-17T16:42:11.473Z,35.75
2018-02-17T16:44:37.866Z,26.25
2018-02-17T16:47:04.700Z,25.65
2018-02-17T16:49:30.937Z,25.77
2018-02-17T16:51:57.303Z,24.15
2018-02-17T16:54:25.373Z,27.67
2018-02-17T16:56:52.390Z,21.95
2018-02-17T16:59:18.652Z,22.15
2018-02-17T17:01:44.950Z,25.30
2018-02-17T17:04:11.109Z,25.17
2018-02-17T17:06:38.702Z,24.10
2018-02-17T17:09:06.410Z,28.65
2018-02-17T17:11:32.911Z,23.15
2018-02-17T17:13:59.213Z,30.30
2018-02-17T17:16:41.974Z,31.25
2018-02-17T17:19:08.221Z,29.75
2018-02-17T17:21:34.517Z,25.05
2018-02-17T17:24:00.973Z,30.42
2018-02-17T17:26:27.237Z,28.75
2018-02-17T17:28:54.217Z,31.37
2018-02-17T17:31:20.457Z,31.45
2018-02-17T17:33:46.508Z,27.08
2018-02-17T17:41:38.679Z,26.83
2018-02-17T17:44:08.135Z,40.90
2018-02-17T17:46:34.397Z,31.92
2018-02-17T17:49:00.661Z,32.65
2018-02-17T17:51:27.646Z,26.70
2018-02-17T17:53:53.923Z,30.50
2018-02-17T17:56:20.347Z,37.90
2018-02-17T17:58:46.601Z,28.05
2018-02-17T18:01:13.619Z,33.85
2018-02-17T18:03:40.378Z,30.08
2018-02-17T18:06:06.669Z,34.22
2018-02-17T18:08:33.069Z,32.03
2018-02-17T18:11:01.168Z,34.08
2018-02-17T18:13:28.169Z,29.80
2018-02-17T18:15:54.409Z,35.38
2018-02-17T18:18:21.823Z,33.88
2018-02-17T18:20:49.053Z,33.15
2018-02-17T18:23:15.302Z,35.28
2018-02-17T18:25:41.353Z,29.12
2018-02-17T18:28:07.400Z,36.40
2018-02-17T18:30:33.630Z,32.78
2018-02-17T18:32:59.696Z,32.35
2018-02-17T18:35:25.786Z,32.75
2018-02-17T18:37:51.813Z,32.20
2018-02-17T18:40:17.885Z,27.30
2018-02-17T18:42:44.684Z,29.55
2018-02-17T18:45:10.729Z,34.33
2018-02-17T18:47:36.850Z,33.50
2018-02-17T18:50:02.933Z,33.53
2018-02-17T18:52:28.984Z,34.47
2018-02-17T18:54:55.238Z,40.00
2018-02-17T18:57:21.504Z,38.35
2018-02-17T18:59:47.755Z,36.40
2018-02-17T19:02:14.147Z,30.20
2018-02-17T19:04:41.121Z,35.85
2018-02-17T19:07:07.478Z,36.67
2018-02-17T19:09:33.765Z,32.25
2018-02-17T19:12:00.075Z,39.67
2018-02-17T19:14:26.412Z,34.08
2018-02-17T19:16:52.678Z,38.08
2018-02-17T19:19:18.905Z,36.55
2018-02-17T19:21:45.146Z,35.45
2018-02-17T19:24:11.366Z,34.20
2018-02-17T19:26:38.731Z,36.47
2018-02-17T19:29:05.748Z,36.83
2018-02-17T19:31:31.994Z,35.00
2018-02-17T19:33:58.285Z,38.22
2018-02-17T19:36:24.534Z,47.30
2018-02-17T19:38:50.792Z,45.03
2018-02-17T19:41:17.041Z,38.28
2018-02-17T19:43:43.335Z,40.47
2018-02-17T19:46:09.571Z,44.53
2018-02-17T19:48:35.911Z,38.80
2018-02-17T19:51:02.102Z,32.08
2018-02-17T19:53:28.373Z,39.55
2018-02-17T19:55:54.661Z,35.60
2018-02-17T19:58:20.937Z,41.30
2018-02-17T20:00:47.982Z,28.45
2018-02-17T20:03:14.308Z,39.22
2018-02-17T20:05:40.626Z,34.13
2018-02-17T20:08:06.994Z,46.33
2018-02-17T20:10:33.326Z,36.83
2018-02-17T20:13:00.305Z,39.40
2018-02-17T20:15:26.678Z,47.60
2018-02-17T20:17:52.896Z,42.53
2018-02-17T20:20:19.155Z,38.53
2018-02-17T20:22:46.109Z,33.92
2018-02-17T20:25:12.376Z,35.17
2018-02-17T20:30:37.137Z,36.78
2018-02-17T20:33:03.343Z,37.30
2018-02-17T20:35:29.571Z,36.65
2018-02-17T20:37:55.845Z,33.97
2018-02-17T20:40:22.048Z,41.63
2018-02-17T20:42:49.016Z,39.58
2018-02-17T20:45:15.279Z,36.35
2018-02-17T20:47:41.523Z,35.08
2018-02-17T20:50:07.751Z,37.38
2018-02-17T20:52:33.978Z,35.55
2018-02-17T20:55:00.222Z,38.17
2018-02-17T20:57:26.438Z,38.88
2018-02-17T20:59:52.681Z,43.50
2018-02-17T21:02:18.942Z,40.60
2018-02-17T21:04:45.240Z,33.67
2018-02-17T21:07:11.482Z,40.78
2018-02-17T21:09:38.962Z,35.55
2018-02-17T21:12:05.942Z,33.53
2018-02-17T21:14:32.180Z,36.13
2018-02-17T21:16:58.458Z,37.53
2018-02-17T21:19:24.671Z,36.30
2018-02-17T21:21:50.881Z,33.40
2018-02-17T21:24:17.115Z,45.80
2018-02-17T21:26:43.392Z,33.63
2018-02-17T21:29:09.618Z,41.65
2018-02-17T21:31:36.583Z,37.67
2018-02-17T21:34:02.819Z,32.33
2018-02-17T21:36:29.085Z,40.22
2018-02-17T21:38:56.078Z,35.60
2018-02-17T21:41:22.376Z,33.15
2018-02-17T21:43:48.633Z,35.35
2018-02-17T21:46:15.662Z,36.75
2018-02-17T21:48:41.934Z,33.05
2018-02-17T21:51:08.197Z,36.55
2018-02-17T21:53:34.435Z,38.28
2018-02-17T21:56:01.461Z,36.25
2018-02-17T21:58:27.821Z,36.97
2018-02-17T22:00:54.051Z,38.17
2018-02-17T22:03:20.290Z,38.63
2018-02-17T22:05:47.290Z,37.15
2018-02-17T22:08:13.529Z,30.42
2018-02-17T22:10:39.774Z,38.47
2018-02-17T22:13:06.026Z,33.05
2018-02-17T22:15:33.115Z,36.92
2018-02-17T22:17:59.354Z,37.65
2018-02-17T22:20:26.379Z,38.00
2018-02-17T22:22:52.608Z,36.22
2018-02-17T22:25:18.910Z,33.88
2018-02-17T22:27:46.713Z,34.33
2018-02-17T22:30:12.949Z,35.75
2018-02-17T22:32:39.223Z,34.47
2018-02-17T22:35:05.498Z,33.90
2018-02-17T22:37:31.767Z,31.20
2018-02-17T22:39:58.001Z,38.42
2018-02-17T22:42:24.233Z,29.63
2018-02-17T22:44:50.557Z,39.63
2018-02-17T22:47:16.813Z,39.00
2018-02-17T22:49:45.853Z,35.55
2018-02-17T22:52:12.094Z,38.15
2018-02-17T22:54:38.349Z,34.95
2018-02-17T22:57:04.573Z,28.60
2018-02-17T22:59:30.807Z,31.85
2018-02-17T23:01:57.042Z,37.42
2018-02-17T23:04:23.275Z,36.85
2018-02-17T23:06:49.521Z,28.85
2018-02-17T23:09:16.513Z,34.65
2018-02-17T23:11:42.741Z,36.55
2018-02-17T23:14:08.969Z,36.30
2018-02-17T23:16:35.200Z,38.22
2018-02-17T23:19:01.426Z,31.58
2018-02-17T23:21:27.678Z,37.60
2018-02-17T23:23:53.894Z,38.92
2018-02-17T23:26:20.133Z,34.05
2018-02-17T23:28:46.493Z,35.15
2018-02-17T23:31:12.722Z,38.25
2018-02-17T23:33:38.970Z,34.70
2018-02-17T23:36:05.194Z,29.58
2018-02-17T23:38:32.170Z,36.17
2018-02-17T23:40:58.386Z,36.70
2018-02-17T23:43:24.619Z,35.17
2018-02-17T23:45:50.933Z,33.78
2018-02-17T23:48:18.510Z,38.72
2018-02-17T23:50:44.729Z,41.47
2018-02-17T23:53:10.938Z,37.25
2018-02-17T23:55:37.242Z,47.47
2018-02-17T23:58:03.463Z,45.58
